Terminal Aerodrome Forecast
Issued by NWS

Home | Current Version | Previous Version | Text Only | Print | Product List | Glossary Off
Versions: 1 2 3 4 5 6 7 8 9 10 11 12 13 14 15 16 17 18 19 20 21 22

100
FTUS43 KMPX 201249 AAA
TAFAXN
TAF AMD
KAXN 201249Z 2013/2112 16012KT P6SM VCSH BKN014 OVC080
     FM201600 17012KT 6SM -SHRA BR VCTS SCT008 OVC012CB
      TEMPO 2016/2020 3SM SHRA OVC008
     FM202100 24013KT P6SM VCSH BKN020
     FM210000 28012G18KT P6SM SCT020 BKN080
     FM210300 28008KT P6SM SKC=

USA.gov is the U.S. government's official web portal to all federal, state and local government web resources and services.